createdAt,value
2018-06-15T00:00:30.011Z,23.00
2018-06-15T00:01:29.998Z,22.40
2018-06-15T00:02:29.984Z,21.70
2018-06-15T00:03:29.977Z,21.50
2018-06-15T00:04:29.973Z,21.20
2018-06-15T00:05:29.966Z,22.50
2018-06-15T00:06:30.720Z,22.00
2018-06-15T00:07:29.959Z,21.80
2018-06-15T00:08:29.952Z,22.70
2018-06-15T00:09:29.947Z,21.60
2018-06-15T00:10:29.940Z,21.90
2018-06-15T00:11:29.945Z,21.80
2018-06-15T00:12:29.927Z,21.60
2018-06-15T00:13:29.917Z,21.70
2018-06-15T00:14:29.914Z,22.60
2018-06-15T00:15:29.921Z,22.40
2018-06-15T00:16:29.905Z,23.10
2018-06-15T00:17:29.898Z,21.50
2018-06-15T00:18:29.891Z,23.20
2018-06-15T00:19:29.884Z,22.30
2018-06-15T00:20:29.884Z,22.20
2018-06-15T00:21:29.873Z,23.40
2018-06-15T00:22:29.874Z,23.00
2018-06-15T00:23:29.880Z,22.90
2018-06-15T00:24:29.859Z,23.60
2018-06-15T00:25:29.854Z,23.00
2018-06-15T00:26:29.851Z,22.80
2018-06-15T00:27:29.836Z,22.20
2018-06-15T00:28:29.835Z,22.30
2018-06-15T00:29:29.826Z,23.90
2018-06-15T00:30:29.824Z,22.60
2018-06-15T00:31:29.817Z,23.30
2018-06-15T00:32:29.809Z,22.40
2018-06-15T00:33:29.802Z,23.90
2018-06-15T00:34:29.797Z,23.20
2018-06-15T00:35:29.792Z,23.20
2018-06-15T00:36:29.786Z,23.80
2018-06-15T00:37:29.781Z,23.30
2018-06-15T00:38:29.783Z,23.00
2018-06-15T00:39:29.776Z,22.40
2018-06-15T00:40:29.775Z,24.10
2018-06-15T00:41:29.757Z,22.70
2018-06-15T00:42:29.757Z,23.00
2018-06-15T00:43:29.744Z,23.80
2018-06-15T00:44:29.743Z,24.60
2018-06-15T00:45:29.731Z,24.80
2018-06-15T00:46:29.732Z,24.50
2018-06-15T00:47:29.727Z,24.10
2018-06-15T00:48:29.715Z,24.40
2018-06-15T00:49:29.708Z,24.70
2018-06-15T00:50:29.705Z,25.20
2018-06-15T00:51:29.704Z,24.10
2018-06-15T00:52:29.701Z,25.90
2018-06-15T00:53:29.693Z,25.00
2018-06-15T00:54:29.684Z,26.10
2018-06-15T00:55:29.703Z,25.40
2018-06-15T00:56:29.696Z,25.80
2018-06-15T00:57:29.667Z,26.30
2018-06-15T00:58:29.663Z,26.50
2018-06-15T00:59:29.660Z,25.60
2018-06-15T01:00:29.650Z,26.60
2018-06-15T01:01:29.651Z,26.00
2018-06-15T01:02:29.642Z,26.40
2018-06-15T01:03:29.642Z,26.40
2018-06-15T01:04:29.631Z,26.50
2018-06-15T01:05:29.621Z,27.30
2018-06-15T01:06:29.614Z,25.80
2018-06-15T01:07:29.610Z,26.80
2018-06-15T01:08:29.602Z,26.20
2018-06-15T01:09:29.594Z,28.10
2018-06-15T01:10:29.591Z,26.60
2018-06-15T01:11:29.586Z,26.50
2018-06-15T01:12:29.581Z,27.70
2018-06-15T01:13:29.616Z,28.50
2018-06-15T01:14:29.577Z,26.70
2018-06-15T01:15:29.572Z,27.50
2018-06-15T01:16:29.566Z,27.80
2018-06-15T01:17:29.550Z,28.30
2018-06-15T01:18:29.550Z,28.80
2018-06-15T01:19:29.542Z,28.20
2018-06-15T01:20:29.534Z,27.30
2018-06-15T01:21:29.529Z,29.00
2018-06-15T01:22:29.518Z,28.80
2018-06-15T01:23:29.514Z,29.70
2018-06-15T01:24:29.517Z,27.70
2018-06-15T01:25:29.503Z,28.40
2018-06-15T01:26:29.500Z,28.30
2018-06-15T01:27:29.497Z,28.70
2018-06-15T01:28:29.488Z,28.90
2018-06-15T01:29:29.483Z,27.40
2018-06-15T01:30:29.472Z,29.80
2018-06-15T01:31:29.467Z,28.90
2018-06-15T01:32:29.482Z,30.50
2018-06-15T01:33:29.462Z,29.60
2018-06-15T01:34:29.454Z,29.30
2018-06-15T01:35:29.451Z,30.10
2018-06-15T01:36:29.447Z,30.40
2018-06-15T01:37:29.431Z,30.00
2018-06-15T01:38:29.428Z,28.70
2018-06-15T01:39:30.258Z,30.10
2018-06-15T01:40:29.419Z,30.90
2018-06-15T01:41:29.408Z,31.00
2018-06-15T01:42:29.406Z,30.90
2018-06-15T01:43:29.403Z,31.40
2018-06-15T01:44:29.394Z,30.90
2018-06-15T01:45:29.384Z,30.50
2018-06-15T01:46:29.380Z,30.30
2018-06-15T01:47:29.377Z,30.70
2018-06-15T01:48:29.370Z,32.30
2018-06-15T01:49:29.363Z,31.60
2018-06-15T01:50:29.357Z,31.90
2018-06-15T01:51:29.347Z,32.40
2018-06-15T01:52:29.345Z,32.40
2018-06-15T01:53:29.338Z,32.30
2018-06-15T01:54:29.339Z,33.00
2018-06-15T01:55:29.329Z,31.90
2018-06-15T01:56:29.317Z,32.40
2018-06-15T01:57:29.311Z,32.90
2018-06-15T01:58:29.305Z,31.90
2018-06-15T01:59:29.308Z,32.80
2018-06-15T02:00:29.297Z,33.40
2018-06-15T02:01:29.395Z,33.00
2018-06-15T02:02:29.283Z,33.40
2018-06-15T02:03:29.280Z,32.80
2018-06-15T02:04:29.267Z,34.70
2018-06-15T02:05:29.265Z,32.40
2018-06-15T02:06:29.258Z,34.20
2018-06-15T02:07:29.255Z,34.20
2018-06-15T02:08:29.249Z,33.30
2018-06-15T02:09:29.244Z,35.30
2018-06-15T02:10:29.260Z,35.30
2018-06-15T02:11:29.228Z,35.50
2018-06-15T02:12:29.225Z,35.40
2018-06-15T02:13:29.270Z,36.00
2018-06-15T02:14:29.230Z,34.30
2018-06-15T02:15:29.202Z,35.50
2018-06-15T02:16:29.201Z,35.50
2018-06-15T02:17:29.189Z,34.50
2018-06-15T02:18:29.185Z,35.60
2018-06-15T02:19:29.176Z,32.70
2018-06-15T02:20:29.170Z,34.60
2018-06-15T02:21:29.174Z,35.90
2018-06-15T02:22:29.160Z,36.20
2018-06-15T02:23:29.153Z,35.80
2018-06-15T02:24:29.145Z,35.90
2018-06-15T02:25:29.144Z,35.80
2018-06-15T02:26:29.135Z,35.70
2018-06-15T02:27:29.135Z,35.20
2018-06-15T02:28:29.124Z,34.90
2018-06-15T02:29:29.120Z,36.50
2018-06-15T02:30:29.110Z,35.50
2018-06-15T02:31:29.104Z,35.00
2018-06-15T02:32:29.098Z,36.60
2018-06-15T02:33:29.088Z,35.40
2018-06-15T02:34:29.083Z,35.70
2018-06-15T02:35:29.077Z,37.00
2018-06-15T02:36:29.072Z,35.40
2018-06-15T02:37:29.075Z,36.70
2018-06-15T02:38:29.056Z,34.50
2018-06-15T02:39:29.054Z,35.80
2018-06-15T02:40:29.042Z,33.40
2018-06-15T02:41:29.040Z,35.50
2018-06-15T02:42:29.039Z,36.10
2018-06-15T02:43:29.028Z,35.20
2018-06-15T02:44:29.028Z,34.30
2018-06-15T02:45:29.038Z,35.80
2018-06-15T02:46:29.007Z,35.30
2018-06-15T02:47:29.000Z,35.00
2018-06-15T02:48:28.993Z,36.10
2018-06-15T02:49:29.009Z,37.10
2018-06-15T02:50:28.983Z,36.20
2018-06-15T02:51:28.976Z,35.60
2018-06-15T02:52:28.970Z,36.00
2018-06-15T02:53:28.974Z,33.20
2018-06-15T02:54:28.953Z,37.50
2018-06-15T02:55:28.954Z,37.70
2018-06-15T02:56:28.943Z,35.60
2018-06-15T02:57:28.948Z,35.20
2018-06-15T02:58:28.931Z,35.40
2018-06-15T02:59:28.925Z,35.80
2018-06-15T03:00:28.915Z,36.30
2018-06-15T03:01:28.915Z,36.80
2018-06-15T03:02:28.916Z,37.80
2018-06-15T03:03:28.894Z,37.00
2018-06-15T03:04:28.894Z,36.00
2018-06-15T03:05:28.889Z,38.30
2018-06-15T03:06:28.886Z,37.00
2018-06-15T03:07:28.904Z,37.60
2018-06-15T03:08:28.863Z,37.20
2018-06-15T03:09:28.859Z,37.70
2018-06-15T03:10:28.851Z,36.60
2018-06-15T03:11:28.847Z,37.90
2018-06-15T03:12:29.791Z,36.80
2018-06-15T03:13:28.832Z,37.10
2018-06-15T03:14:28.832Z,36.20
2018-06-15T03:15:28.822Z,35.60
2018-06-15T03:16:28.812Z,35.40
2018-06-15T03:17:28.807Z,36.80
2018-06-15T03:18:28.799Z,35.10
2018-06-15T03:19:28.794Z,36.30
2018-06-15T03:20:28.789Z,37.70
2018-06-15T03:21:28.780Z,37.70
2018-06-15T03:22:28.772Z,36.40
2018-06-15T03:23:28.766Z,36.70
2018-06-15T03:24:28.764Z,36.40
2018-06-15T03:25:28.755Z,36.40
2018-06-15T03:26:28.748Z,37.70
2018-06-15T03:27:28.744Z,37.10
2018-06-15T03:28:28.740Z,37.00
2018-06-15T03:29:28.734Z,37.30
2018-06-15T03:30:28.730Z,37.60
2018-06-15T03:31:28.742Z,38.20
2018-06-15T03:32:28.718Z,38.00
2018-06-15T03:33:28.703Z,38.60
2018-06-15T03:34:28.700Z,38.40
2018-06-15T03:35:28.695Z,38.50
2018-06-15T03:36:28.690Z,37.10
2018-06-15T03:37:28.680Z,37.50
2018-06-15T03:38:28.677Z,37.80
2018-06-15T03:39:28.668Z,37.50
2018-06-15T03:40:28.663Z,36.90
2018-06-15T03:41:28.658Z,36.60
2018-06-15T03:42:28.648Z,37.60
2018-06-15T03:43:28.644Z,36.40
2018-06-15T03:44:28.642Z,36.20
2018-06-15T03:45:28.631Z,36.00
2018-06-15T03:46:28.629Z,36.00
2018-06-15T03:47:28.624Z,37.00
2018-06-15T03:48:28.616Z,37.00
2018-06-15T03:49:28.610Z,36.20
2018-06-15T03:50:28.601Z,37.10
2018-06-15T03:51:28.596Z,38.40
2018-06-15T03:52:28.593Z,39.40
2018-06-15T03:53:28.589Z,40.20
2018-06-15T03:54:28.584Z,38.00
2018-06-15T03:55:28.575Z,37.50
2018-06-15T03:56:28.567Z,39.00
2018-06-15T03:57:28.559Z,39.40
2018-06-15T03:58:28.553Z,39.70
2018-06-15T03:59:28.565Z,39.90
2018-06-15T04:00:28.542Z,39.20
2018-06-15T04:01:28.538Z,37.00
2018-06-15T04:02:28.533Z,37.80
2018-06-15T04:03:28.526Z,39.00
2018-06-15T04:04:28.523Z,39.00
2018-06-15T04:05:28.517Z,39.20
2018-06-15T04:06:28.510Z,40.60
2018-06-15T04:07:28.502Z,38.40
2018-06-15T04:08:28.503Z,40.50
2018-06-15T04:09:28.489Z,39.30
2018-06-15T04:10:28.482Z,40.60
2018-06-15T04:11:28.481Z,40.20
2018-06-15T04:12:28.481Z,39.80
2018-06-15T04:13:28.475Z,39.50
2018-06-15T04:14:28.467Z,39.80
2018-06-15T04:15:28.466Z,39.70
2018-06-15T04:16:28.448Z,41.90
2018-06-15T04:17:28.444Z,39.10
2018-06-15T04:18:28.439Z,41.40
2018-06-15T04:19:28.433Z,41.30
2018-06-15T04:20:28.428Z,38.80
2018-06-15T04:21:28.420Z,40.10
2018-06-15T04:22:28.415Z,41.20
2018-06-15T04:23:28.407Z,39.50
2018-06-15T04:24:28.400Z,40.80
2018-06-15T04:25:28.396Z,39.70
2018-06-15T04:26:28.393Z,39.90
2018-06-15T04:27:28.386Z,39.00
2018-06-15T04:28:28.379Z,39.00
2018-06-15T04:29:28.372Z,38.70
2018-06-15T04:30:28.370Z,39.60
2018-06-15T04:31:28.360Z,41.80
2018-06-15T04:32:28.352Z,38.60
2018-06-15T04:33:28.350Z,38.60
2018-06-15T04:34:28.348Z,38.70
2018-06-15T04:35:28.340Z,38.40
2018-06-15T04:36:28.333Z,38.00
2018-06-15T04:37:28.327Z,38.50
2018-06-15T04:38:28.322Z,39.10
2018-06-15T04:39:28.315Z,38.00
2018-06-15T04:40:28.312Z,38.80
2018-06-15T04:41:28.307Z,37.80
2018-06-15T04:42:28.301Z,37.80
2018-06-15T04:43:28.295Z,39.60
2018-06-15T04:44:28.285Z,39.30
2018-06-15T04:45:28.283Z,38.80
2018-06-15T04:46:28.279Z,38.50
2018-06-15T04:47:28.269Z,36.80
2018-06-15T04:48:28.264Z,38.30
2018-06-15T04:49:28.260Z,39.60
2018-06-15T04:50:28.256Z,36.30
2018-06-15T04:51:28.249Z,38.00
2018-06-15T04:52:28.241Z,36.40
2018-06-15T04:53:28.240Z,36.30
2018-06-15T04:54:28.233Z,36.20
2018-06-15T04:55:28.225Z,37.80
2018-06-15T04:56:28.218Z,35.20
2018-06-15T04:57:28.215Z,35.50
2018-06-15T04:58:28.208Z,36.00
2018-06-15T04:59:28.200Z,35.90
2018-06-15T05:00:28.199Z,37.70
2018-06-15T05:01:28.208Z,35.70
2018-06-15T05:02:28.188Z,35.20
2018-06-15T05:03:28.186Z,36.40
2018-06-15T05:04:28.174Z,35.90
2018-06-15T05:05:28.170Z,35.30
2018-06-15T05:06:28.162Z,34.60
2018-06-15T05:07:28.185Z,35.10
2018-06-15T05:08:28.176Z,34.50
2018-06-15T05:09:28.154Z,36.10
2018-06-15T05:10:28.144Z,34.80
2018-06-15T05:11:28.153Z,35.50
2018-06-15T05:12:28.132Z,34.60
2018-06-15T05:13:28.129Z,36.70
2018-06-15T05:14:28.120Z,34.80
2018-06-15T05:15:28.115Z,35.00
2018-06-15T05:16:28.113Z,34.80
2018-06-15T05:17:28.117Z,34.40
2018-06-15T05:18:28.100Z,34.60
2018-06-15T05:19:28.094Z,35.00
2018-06-15T05:20:28.090Z,35.60
2018-06-15T05:21:28.091Z,34.30
2018-06-15T05:22:28.083Z,33.70
2018-06-15T05:23:28.078Z,33.40
2018-06-15T05:24:28.072Z,34.20
2018-06-15T05:25:28.068Z,33.80
2018-06-15T05:26:28.068Z,33.60
2018-06-15T05:27:28.059Z,34.70
2018-06-15T05:28:28.069Z,33.80
2018-06-15T05:29:28.058Z,32.80
2018-06-15T05:30:28.039Z,33.00
2018-06-15T05:31:28.037Z,32.80
2018-06-15T05:32:28.847Z,32.00
2018-06-15T05:33:28.029Z,31.40
2018-06-15T05:34:28.018Z,32.00
2018-06-15T05:35:28.015Z,32.90
2018-06-15T05:36:28.015Z,32.10
2018-06-15T05:37:28.006Z,33.10
2018-06-15T05:38:27.999Z,32.70
2018-06-15T05:39:28.036Z,32.60
2018-06-15T05:40:27.988Z,32.20
2018-06-15T05:41:27.983Z,32.80
2018-06-15T05:42:28.004Z,32.90
2018-06-15T05:43:27.975Z,32.00
2018-06-15T05:44:27.972Z,33.70
2018-06-15T05:45:27.964Z,31.90
2018-06-15T05:46:27.960Z,32.50
2018-06-15T05:47:27.959Z,32.70
2018-06-15T05:48:27.992Z,32.40
2018-06-15T05:49:27.944Z,33.70
2018-06-15T05:50:27.941Z,33.50
2018-06-15T05:51:27.938Z,33.70
2018-06-15T05:52:27.932Z,32.90
2018-06-15T05:53:27.927Z,33.30
2018-06-15T05:54:27.920Z,33.00
2018-06-15T05:55:27.937Z,33.50
2018-06-15T05:56:27.911Z,33.10
2018-06-15T05:57:27.910Z,33.40
2018-06-15T05:58:27.902Z,33.00
2018-06-15T05:59:27.901Z,32.40
2018-06-15T06:00:27.937Z,32.80
2018-06-15T06:01:27.891Z,32.10
2018-06-15T06:02:27.886Z,32.70
2018-06-15T06:03:27.880Z,31.90
2018-06-15T06:04:27.885Z,32.70
2018-06-15T06:05:27.874Z,31.20
2018-06-15T06:06:27.863Z,31.20
2018-06-15T06:07:27.858Z,31.00
2018-06-15T06:08:27.862Z,32.70
2018-06-15T06:09:27.856Z,33.20
2018-06-15T06:10:27.849Z,33.00
2018-06-15T06:11:27.888Z,32.50
2018-06-15T06:12:27.866Z,31.90
2018-06-15T06:13:27.830Z,32.10
2018-06-15T06:14:27.829Z,32.60
2018-06-15T06:15:27.824Z,31.60
2018-06-15T06:16:27.820Z,31.90
2018-06-15T06:17:27.824Z,30.60
2018-06-15T06:18:27.924Z,31.80
2018-06-15T06:19:27.888Z,30.00
2018-06-15T06:20:27.806Z,31.90
2018-06-15T06:21:27.810Z,31.50
2018-06-15T06:22:27.916Z,31.00
2018-06-15T06:23:27.815Z,30.20
2018-06-15T06:24:27.857Z,30.40
2018-06-15T06:25:27.779Z,30.40
2018-06-15T06:26:27.822Z,31.00
2018-06-15T06:27:27.775Z,30.20
2018-06-15T06:28:27.774Z,31.30
2018-06-15T06:29:27.796Z,30.10
2018-06-15T06:30:27.775Z,31.60
2018-06-15T06:31:27.751Z,30.80
2018-06-15T06:32:27.793Z,31.10
2018-06-15T06:33:27.745Z,28.40
2018-06-15T06:34:27.746Z,30.00
2018-06-15T06:35:27.740Z,31.20
2018-06-15T06:36:27.737Z,29.50
2018-06-15T06:37:27.729Z,29.80
2018-06-15T06:38:27.740Z,29.80
2018-06-15T06:39:27.720Z,28.80
2018-06-15T06:40:27.718Z,29.40
2018-06-15T06:41:27.714Z,28.00
2018-06-15T06:42:27.709Z,28.00
2018-06-15T06:43:27.707Z,27.90
2018-06-15T06:44:27.708Z,27.50
2018-06-15T06:45:27.702Z,28.30
2018-06-15T06:46:27.755Z,27.00
2018-06-15T06:47:27.700Z,28.20
2018-06-15T06:48:27.693Z,26.60
2018-06-15T06:49:27.685Z,26.70
2018-06-15T06:50:27.718Z,26.70
2018-06-15T06:51:27.686Z,28.00
2018-06-15T06:52:27.683Z,27.20
2018-06-15T06:53:27.681Z,25.90
2018-06-15T06:54:27.679Z,27.20
2018-06-15T06:55:27.678Z,27.20
2018-06-15T06:56:27.675Z,27.40
2018-06-15T06:57:27.665Z,26.00
2018-06-15T06:58:27.726Z,26.10
2018-06-15T06:59:27.667Z,26.40
2018-06-15T07:00:27.662Z,25.50
2018-06-15T07:01:27.659Z,25.00
2018-06-15T07:02:27.657Z,25.30
2018-06-15T07:03:27.654Z,24.60
2018-06-15T07:04:27.651Z,24.10
2018-06-15T07:05:27.655Z,23.30
2018-06-15T07:06:27.649Z,23.50
2018-06-15T07:07:27.650Z,24.10
2018-06-15T07:08:27.657Z,25.30
2018-06-15T07:09:27.647Z,25.40
2018-06-15T07:10:27.646Z,26.20
2018-06-15T07:11:27.646Z,24.50
2018-06-15T07:12:27.644Z,24.50
2018-06-15T07:13:27.643Z,24.90
2018-06-15T07:14:27.641Z,24.00
2018-06-15T07:15:27.639Z,23.50
2018-06-15T07:16:27.646Z,24.60
2018-06-15T07:17:27.637Z,24.40
2018-06-15T07:18:27.635Z,23.20
2018-06-15T07:19:27.638Z,25.70
2018-06-15T07:20:27.634Z,26.70
2018-06-15T07:21:27.633Z,26.10
2018-06-15T07:22:27.630Z,27.90
2018-06-15T07:23:27.624Z,27.60
2018-06-15T07:24:27.620Z,28.30
2018-06-15T07:25:27.623Z,26.90
2018-06-15T07:26:27.621Z,27.60
2018-06-15T07:27:27.624Z,27.60
2018-06-15T07:28:27.622Z,27.40
2018-06-15T07:29:27.624Z,26.90
2018-06-15T07:30:27.616Z,27.20
2018-06-15T07:31:27.617Z,25.60
2018-06-15T07:32:27.616Z,26.90
2018-06-15T07:33:27.620Z,30.20
2018-06-15T07:34:27.616Z,30.00
2018-06-15T07:35:27.602Z,28.80
2018-06-15T07:36:27.600Z,32.80
2018-06-15T07:37:27.599Z,31.30
2018-06-15T07:38:27.597Z,29.30
2018-06-15T07:39:27.592Z,31.00
2018-06-15T07:40:27.590Z,30.70
2018-06-15T07:41:27.591Z,29.00
2018-06-15T07:42:27.593Z,28.40
2018-06-15T07:43:27.598Z,29.20
2018-06-15T07:44:27.583Z,27.20
2018-06-15T07:45:27.583Z,26.40
2018-06-15T07:46:27.576Z,27.10
2018-06-15T07:47:27.577Z,25.40
2018-06-15T07:48:27.579Z,26.40
2018-06-15T07:49:27.570Z,26.70
2018-06-15T07:50:27.575Z,26.40
2018-06-15T07:51:27.568Z,26.30
2018-06-15T07:52:27.624Z,25.40
2018-06-15T07:53:27.571Z,24.40
2018-06-15T07:54:27.565Z,23.50
2018-06-15T07:55:27.567Z,24.00
2018-06-15T07:56:27.566Z,23.80
2018-06-15T07:57:27.566Z,24.00
2018-06-15T07:58:27.561Z,23.50
2018-06-15T07:59:27.629Z,23.50
2018-06-15T08:00:27.556Z,24.50
2018-06-15T08:01:27.551Z,23.20
2018-06-15T08:02:27.552Z,23.20
2018-06-15T08:03:27.554Z,22.70
2018-06-15T08:04:27.551Z,21.80
2018-06-15T08:05:27.549Z,21.50
2018-06-15T08:06:27.546Z,22.30
2018-06-15T08:07:27.544Z,21.10
2018-06-15T08:08:27.542Z,21.40
2018-06-15T08:09:27.541Z,21.30
2018-06-15T08:10:27.540Z,21.30
2018-06-15T08:11:27.533Z,21.00
2018-06-15T08:12:27.534Z,19.70
2018-06-15T08:13:27.526Z,20.00
2018-06-15T08:14:27.526Z,20.50
2018-06-15T08:15:27.525Z,20.20
2018-06-15T08:16:27.532Z,19.70
2018-06-15T08:17:28.436Z,20.80
2018-06-15T08:18:27.522Z,20.40
2018-06-15T08:19:27.514Z,19.20
2018-06-15T08:20:27.512Z,20.00
2018-06-15T08:21:27.509Z,20.20
2018-06-15T08:22:27.505Z,19.30
2018-06-15T08:23:27.513Z,19.10
2018-06-15T08:24:27.512Z,19.00
2018-06-15T08:25:27.504Z,19.60
2018-06-15T08:26:27.497Z,18.40
2018-06-15T08:27:27.501Z,18.50
2018-06-15T08:28:27.495Z,17.80
2018-06-15T08:29:27.496Z,18.40
2018-06-15T08:30:27.496Z,20.00
2018-06-15T08:31:27.493Z,19.30
2018-06-15T08:32:27.489Z,18.10
2018-06-15T08:33:27.485Z,18.70
2018-06-15T08:34:27.490Z,19.30
2018-06-15T08:35:27.483Z,18.70
2018-06-15T08:36:27.502Z,19.90
2018-06-15T08:37:27.487Z,20.40
2018-06-15T08:38:27.485Z,18.20
2018-06-15T08:39:27.483Z,16.80
2018-06-15T08:40:27.485Z,16.50
2018-06-15T08:41:27.480Z,16.60
2018-06-15T08:42:27.481Z,15.90
2018-06-15T08:43:27.485Z,16.00
2018-06-15T08:44:27.490Z,17.20
2018-06-15T08:45:27.493Z,17.60
2018-06-15T08:46:27.487Z,17.10
2018-06-15T08:47:27.486Z,18.30
2018-06-15T08:48:27.488Z,20.70
2018-06-15T08:49:27.490Z,18.80
2018-06-15T08:50:27.495Z,18.90
2018-06-15T08:51:27.496Z,17.90
2018-06-15T08:52:27.494Z,17.70
2018-06-15T08:53:27.494Z,16.30
2018-06-15T08:54:27.496Z,15.00
2018-06-15T08:55:27.497Z,14.40
2018-06-15T08:56:27.497Z,14.70
2018-06-15T08:57:27.497Z,15.00
2018-06-15T08:58:27.504Z,14.80
2018-06-15T08:59:27.504Z,14.70
2018-06-15T09:00:27.505Z,14.20
2018-06-15T09:01:27.521Z,15.20
2018-06-15T09:02:27.505Z,14.30
2018-06-15T09:03:27.504Z,13.30
2018-06-15T09:04:27.509Z,15.10
2018-06-15T09:05:27.513Z,16.70
2018-06-15T09:06:27.511Z,16.10
2018-06-15T09:07:27.513Z,14.80
2018-06-15T09:08:27.508Z,15.00
2018-06-15T09:09:27.513Z,15.20
2018-06-15T09:10:27.512Z,17.20
2018-06-15T09:11:27.517Z,16.60
2018-06-15T09:12:27.517Z,17.40
2018-06-15T09:13:27.516Z,17.30
2018-06-15T09:14:27.517Z,17.10
2018-06-15T09:15:27.516Z,17.30
2018-06-15T09:16:27.514Z,16.40
2018-06-15T09:17:27.514Z,15.90
2018-06-15T09:18:27.516Z,16.70
2018-06-15T09:19:27.518Z,15.50
2018-06-15T09:20:27.524Z,16.10
2018-06-15T09:21:27.519Z,15.20
2018-06-15T09:22:27.516Z,15.40
2018-06-15T09:23:27.522Z,15.20
2018-06-15T09:24:27.521Z,15.50
2018-06-15T09:25:27.521Z,14.30
2018-06-15T09:26:27.528Z,12.60
2018-06-15T09:27:27.525Z,12.70
2018-06-15T09:28:27.530Z,13.00
2018-06-15T09:29:27.526Z,12.90
2018-06-15T09:30:27.524Z,14.60
2018-06-15T09:31:27.530Z,15.20
2018-06-15T09:32:27.525Z,15.20
2018-06-15T09:33:27.532Z,15.20
2018-06-15T09:34:27.542Z,13.70
2018-06-15T09:35:27.535Z,12.90
2018-06-15T09:36:27.534Z,13.30
2018-06-15T09:37:27.531Z,13.50
2018-06-15T09:38:27.540Z,13.80
2018-06-15T09:39:27.540Z,13.30
2018-06-15T09:40:27.541Z,14.20
2018-06-15T09:41:27.540Z,14.50
2018-06-15T09:42:27.543Z,15.50
2018-06-15T09:43:27.542Z,14.10
2018-06-15T09:44:27.544Z,15.90
2018-06-15T09:45:27.543Z,14.90
2018-06-15T09:46:27.552Z,15.60
2018-06-15T09:47:27.552Z,14.50
2018-06-15T09:48:27.550Z,13.50
2018-06-15T09:49:27.551Z,14.30
2018-06-15T09:50:27.551Z,13.60
2018-06-15T09:51:27.553Z,13.80
2018-06-15T09:52:27.554Z,14.10
2018-06-15T09:53:27.558Z,13.20
2018-06-15T09:54:27.561Z,11.20
2018-06-15T09:55:27.562Z,9.90
2018-06-15T09:56:27.562Z,10.60
2018-06-15T09:57:27.567Z,10.30
2018-06-15T09:58:27.570Z,9.70
2018-06-15T09:59:27.573Z,10.30
2018-06-15T10:00:27.573Z,10.50
2018-06-15T10:01:27.575Z,9.90
2018-06-15T10:02:27.574Z,12.00
2018-06-15T10:03:27.574Z,12.00
2018-06-15T10:04:27.582Z,11.60
2018-06-15T10:05:27.573Z,11.80
2018-06-15T10:06:27.572Z,11.40
2018-06-15T10:07:27.585Z,12.20
2018-06-15T10:08:27.581Z,12.70
2018-06-15T10:09:27.583Z,13.90
2018-06-15T10:10:27.583Z,14.30
2018-06-15T10:11:27.582Z,13.40
2018-06-15T10:12:27.584Z,13.20
2018-06-15T10:13:27.585Z,12.40
2018-06-15T10:14:27.590Z,12.00
2018-06-15T10:15:27.587Z,12.60
2018-06-15T10:16:27.590Z,12.20
2018-06-15T10:17:27.583Z,13.00
2018-06-15T10:18:27.588Z,12.70
2018-06-15T10:19:27.587Z,13.70
2018-06-15T10:20:27.602Z,13.40
2018-06-15T10:21:27.587Z,13.60
2018-06-15T10:22:27.593Z,12.90
2018-06-15T10:23:27.599Z,12.10
2018-06-15T10:24:27.586Z,11.70
2018-06-15T10:25:27.585Z,11.70
2018-06-15T10:26:27.589Z,13.10
2018-06-15T10:27:27.588Z,11.30
2018-06-15T10:28:27.587Z,11.80
2018-06-15T10:29:27.590Z,11.40
2018-06-15T10:30:27.592Z,11.60
2018-06-15T10:31:27.588Z,11.40
2018-06-15T10:32:27.592Z,10.00
2018-06-15T10:33:27.593Z,10.00
2018-06-15T10:34:27.602Z,10.70
2018-06-15T10:35:27.605Z,9.20
2018-06-15T10:36:27.610Z,10.80
2018-06-15T10:37:27.605Z,10.30
2018-06-15T10:38:27.615Z,11.40
2018-06-15T10:39:27.651Z,11.20
2018-06-15T10:40:27.623Z,11.50
2018-06-15T10:41:27.631Z,10.80
2018-06-15T10:42:27.633Z,10.30
2018-06-15T10:43:27.636Z,10.60
2018-06-15T10:44:27.641Z,9.80
2018-06-15T10:45:27.643Z,9.20
2018-06-15T10:46:27.647Z,8.90
2018-06-15T10:47:27.658Z,9.20
2018-06-15T10:48:27.662Z,8.00
2018-06-15T10:49:27.667Z,8.30
2018-06-15T10:50:27.672Z,7.70
2018-06-15T10:51:27.678Z,8.00
2018-06-15T10:52:27.685Z,7.70
2018-06-15T10:53:27.685Z,7.30
2018-06-15T10:54:27.692Z,7.40
2018-06-15T10:55:27.698Z,7.80
2018-06-15T10:56:27.706Z,8.20
2018-06-15T10:57:27.708Z,7.80
2018-06-15T10:58:27.713Z,7.80
2018-06-15T10:59:27.716Z,7.70
2018-06-15T11:00:27.730Z,7.60
2018-06-15T11:01:27.734Z,7.60
2018-06-15T11:02:27.752Z,7.40
2018-06-15T11:03:27.745Z,7.50
2018-06-15T11:04:27.752Z,7.30
2018-06-15T11:05:27.753Z,6.70
2018-06-15T11:06:27.759Z,6.80
2018-06-15T11:07:27.764Z,7.00
2018-06-15T11:08:27.772Z,7.20
2018-06-15T11:09:27.780Z,7.30
2018-06-15T11:10:27.789Z,6.70
2018-06-15T11:11:27.789Z,7.60
2018-06-15T11:12:27.798Z,8.00
2018-06-15T11:13:27.804Z,8.50
2018-06-15T11:14:27.850Z,8.40
2018-06-15T11:15:27.814Z,8.60
2018-06-15T11:16:27.819Z,9.60
2018-06-15T11:17:27.826Z,9.80
2018-06-15T11:18:27.825Z,10.30
2018-06-15T11:19:27.830Z,9.70
2018-06-15T11:20:27.840Z,10.00
2018-06-15T11:21:27.840Z,11.10
2018-06-15T11:22:27.848Z,11.30
2018-06-15T11:23:27.854Z,11.50
2018-06-15T11:24:27.857Z,11.40
2018-06-15T11:25:27.857Z,11.10
2018-06-15T11:26:27.860Z,11.90
2018-06-15T11:27:27.864Z,12.00
2018-06-15T11:28:27.871Z,11.90
2018-06-15T11:29:27.877Z,12.60
2018-06-15T11:30:27.881Z,11.80
2018-06-15T11:31:27.885Z,11.60
2018-06-15T11:32:27.891Z,11.20
2018-06-15T11:33:27.889Z,10.60
2018-06-15T11:34:27.892Z,9.30
2018-06-15T11:35:27.922Z,9.70
2018-06-15T11:36:27.904Z,10.20
2018-06-15T11:37:27.912Z,10.90
2018-06-15T11:38:27.916Z,9.50
2018-06-15T11:39:27.916Z,9.00
2018-06-15T11:40:27.923Z,8.80
2018-06-15T11:41:27.930Z,9.60
2018-06-15T11:42:27.940Z,9.00
2018-06-15T11:43:27.944Z,8.50
2018-06-15T11:44:27.951Z,10.10
2018-06-15T11:45:27.959Z,8.90
2018-06-15T11:46:27.979Z,8.00
2018-06-15T11:47:27.967Z,9.90
2018-06-15T11:48:27.973Z,9.20
2018-06-15T11:49:27.982Z,9.90
2018-06-15T11:50:27.989Z,9.10
2018-06-15T11:51:27.996Z,10.00
2018-06-15T11:52:28.000Z,9.90
2018-06-15T11:53:28.004Z,9.70
2018-06-15T11:54:28.016Z,9.90
2018-06-15T11:55:28.018Z,9.40
2018-06-15T11:56:28.030Z,8.90
2018-06-15T11:57:28.054Z,9.90
2018-06-15T11:58:28.113Z,10.20
2018-06-15T11:59:28.050Z,9.30
2018-06-15T12:00:28.052Z,9.00
2018-06-15T12:01:28.106Z,9.40
2018-06-15T12:02:28.068Z,9.90
2018-06-15T12:03:28.081Z,10.20
2018-06-15T12:04:28.089Z,10.10
2018-06-15T12:05:28.095Z,10.00
2018-06-15T12:06:28.102Z,9.20
2018-06-15T12:07:28.108Z,9.20
2018-06-15T12:08:28.112Z,9.20
2018-06-15T12:09:28.121Z,9.30
2018-06-15T12:10:28.128Z,8.80
2018-06-15T12:11:28.135Z,8.00
2018-06-15T12:12:28.174Z,7.60
2018-06-15T12:13:28.148Z,7.80
2018-06-15T12:14:28.152Z,7.20
2018-06-15T12:15:28.178Z,6.20
2018-06-15T12:16:28.171Z,6.70
2018-06-15T12:17:28.174Z,7.00
2018-06-15T12:18:28.182Z,6.70
2018-06-15T12:19:28.188Z,6.50
2018-06-15T12:20:28.200Z,7.00
2018-06-15T12:21:28.202Z,7.40
2018-06-15T12:22:28.213Z,7.50
2018-06-15T12:23:28.224Z,7.70
2018-06-15T12:24:28.229Z,7.40
2018-06-15T12:25:28.236Z,7.10
2018-06-15T12:26:28.241Z,7.50
2018-06-15T12:27:28.245Z,8.40
2018-06-15T12:28:28.261Z,8.00
2018-06-15T12:29:28.259Z,8.70
2018-06-15T12:30:28.268Z,7.70
2018-06-15T12:31:28.278Z,8.70
2018-06-15T12:32:28.281Z,8.70
2018-06-15T12:33:28.293Z,8.10
2018-06-15T12:34:28.299Z,8.90
2018-06-15T12:35:28.307Z,8.60
2018-06-15T12:36:28.313Z,8.20
2018-06-15T12:37:28.325Z,8.60
2018-06-15T12:38:28.332Z,9.10
2018-06-15T12:39:28.341Z,8.50
2018-06-15T12:40:28.353Z,9.10
2018-06-15T12:41:28.350Z,9.00
2018-06-15T12:42:28.362Z,8.90
2018-06-15T12:43:28.369Z,8.20
2018-06-15T12:44:28.378Z,8.10
2018-06-15T12:45:28.385Z,8.40
2018-06-15T12:46:28.392Z,8.40
2018-06-15T12:47:28.398Z,8.00
2018-06-15T12:48:28.405Z,8.40
2018-06-15T12:49:28.409Z,8.50
2018-06-15T12:50:28.420Z,8.10
2018-06-15T12:51:28.431Z,8.30
2018-06-15T12:52:28.444Z,8.20
2018-06-15T12:53:28.439Z,8.00
2018-06-15T12:54:28.453Z,8.30
2018-06-15T12:55:28.444Z,8.50
2018-06-15T12:56:28.452Z,8.40